sensor_id;sensor_type;location;lat;lon;timestamp;P1;durP1;ratioP1;P2;durP2;ratioP2
23682;SDS011;24897;53.514;10.482;2023-03-01T00:02:19;50.30;;;44.00;;
23682;SDS011;24897;53.514;10.482;2023-03-01T00:05:03;53.57;;;44.23;;
23682;SDS011;24897;53.514;10.482;2023-03-01T00:07:48;49.50;;;44.10;;
23682;SDS011;24897;53.514;10.482;2023-03-01T00:10:36;48.77;;;43.43;;
23682;SDS011;24897;53.514;10.482;2023-03-01T00:13:21;49.33;;;43.93;;
23682;SDS011;24897;53.514;10.482;2023-03-01T00:16:06;51.73;;;43.80;;
23682;SDS011;24897;53.514;10.482;2023-03-01T00:18:53;48.87;;;43.43;;
23682;SDS011;24897;53.514;10.482;2023-03-01T00:21:39;47.80;;;42.60;;
23682;SDS011;24897;53.514;10.482;2023-03-01T00:24:24;50.07;;;44.70;;
23682;SDS011;24897;53.514;10.482;2023-03-01T00:27:08;50.23;;;43.73;;
23682;SDS011;24897;53.514;10.482;2023-03-01T00:29:52;47.90;;;42.70;;
23682;SDS011;24897;53.514;10.482;2023-03-01T00:32:36;47.17;;;42.00;;
23682;SDS011;24897;53.514;10.482;2023-03-01T00:35:20;47.70;;;42.50;;
23682;SDS011;24897;53.514;10.482;2023-03-01T00:38:06;46.53;;;41.63;;
23682;SDS011;24897;53.514;10.482;2023-03-01T00:40:50;46.47;;;41.50;;
23682;SDS011;24897;53.514;10.482;2023-03-01T00:43:34;47.53;;;42.00;;
23682;SDS011;24897;53.514;10.482;2023-03-01T00:46:22;45.60;;;40.80;;
23682;SDS011;24897;53.514;10.482;2023-03-01T00:49:07;46.17;;;41.30;;
23682;SDS011;24897;53.514;10.482;2023-03-01T00:51:52;47.83;;;42.73;;
23682;SDS011;24897;53.514;10.482;2023-03-01T00:54:37;46.90;;;41.90;;
23682;SDS011;24897;53.514;10.482;2023-03-01T00:57:21;46.83;;;41.93;;
23682;SDS011;24897;53.514;10.482;2023-03-01T01:00:05;48.60;;;43.20;;
23682;SDS011;24897;53.514;10.482;2023-03-01T01:02:51;47.03;;;41.43;;
23682;SDS011;24897;53.514;10.482;2023-03-01T01:05:35;46.10;;;41.13;;
23682;SDS011;24897;53.514;10.482;2023-03-01T01:08:20;45.53;;;40.70;;
23682;SDS011;24897;53.514;10.482;2023-03-01T01:11:04;48.50;;;43.20;;
23682;SDS011;24897;53.514;10.482;2023-03-01T01:13:49;49.27;;;43.30;;
23682;SDS011;24897;53.514;10.482;2023-03-01T01:16:34;48.17;;;41.87;;
23682;SDS011;24897;53.514;10.482;2023-03-01T01:19:18;49.03;;;42.47;;
23682;SDS011;24897;53.514;10.482;2023-03-01T01:22:02;50.73;;;42.93;;
23682;SDS011;24897;53.514;10.482;2023-03-01T01:24:46;48.37;;;42.40;;
23682;SDS011;24897;53.514;10.482;2023-03-01T01:27:30;46.87;;;40.60;;
23682;SDS011;24897;53.514;10.482;2023-03-01T01:30:14;46.67;;;41.60;;
23682;SDS011;24897;53.514;10.482;2023-03-01T01:32:59;47.90;;;41.93;;
23682;SDS011;24897;53.514;10.482;2023-03-01T01:35:45;47.67;;;41.00;;
23682;SDS011;24897;53.514;10.482;2023-03-01T01:38:29;47.50;;;41.63;;
23682;SDS011;24897;53.514;10.482;2023-03-01T01:41:13;45.57;;;40.67;;
23682;SDS011;24897;53.514;10.482;2023-03-01T01:47:06;48.03;;;40.90;;
23682;SDS011;24897;53.514;10.482;2023-03-01T01:49:58;49.43;;;40.47;;
23682;SDS011;24897;53.514;10.482;2023-03-01T01:52:42;49.13;;;40.23;;
23682;SDS011;24897;53.514;10.482;2023-03-01T01:55:26;46.37;;;40.40;;
23682;SDS011;24897;53.514;10.482;2023-03-01T01:58:12;47.17;;;40.80;;
23682;SDS011;24897;53.514;10.482;2023-03-01T02:01:01;47.97;;;40.43;;
23682;SDS011;24897;53.514;10.482;2023-03-01T02:03:46;46.43;;;41.20;;
23682;SDS011;24897;53.514;10.482;2023-03-01T02:06:33;47.37;;;40.00;;
23682;SDS011;24897;53.514;10.482;2023-03-01T02:09:23;46.10;;;40.27;;
23682;SDS011;24897;53.514;10.482;2023-03-01T02:12:07;46.90;;;41.20;;
23682;SDS011;24897;53.514;10.482;2023-03-01T02:14:52;48.37;;;41.43;;
23682;SDS011;24897;53.514;10.482;2023-03-01T02:17:36;47.37;;;42.13;;
23682;SDS011;24897;53.514;10.482;2023-03-01T02:23:21;48.37;;;42.13;;
23682;SDS011;24897;53.514;10.482;2023-03-01T02:28:51;48.90;;;41.50;;
23682;SDS011;24897;53.514;10.482;2023-03-01T02:31:35;49.20;;;41.57;;
23682;SDS011;24897;53.514;10.482;2023-03-01T02:34:25;46.60;;;40.57;;
23682;SDS011;24897;53.514;10.482;2023-03-01T02:37:13;49.07;;;40.80;;
23682;SDS011;24897;53.514;10.482;2023-03-01T02:40:06;45.40;;;39.77;;
23682;SDS011;24897;53.514;10.482;2023-03-01T02:42:58;46.50;;;40.07;;
23682;SDS011;24897;53.514;10.482;2023-03-01T02:45:47;45.83;;;39.10;;
23682;SDS011;24897;53.514;10.482;2023-03-01T02:48:40;46.57;;;39.03;;
23682;SDS011;24897;53.514;10.482;2023-03-01T02:51:48;46.10;;;39.50;;
23682;SDS011;24897;53.514;10.482;2023-03-01T02:57:45;50.50;;;39.47;;
23682;SDS011;24897;53.514;10.482;2023-03-01T03:00:36;46.77;;;38.93;;
23682;SDS011;24897;53.514;10.482;2023-03-01T03:03:23;47.30;;;38.57;;
23682;SDS011;24897;53.514;10.482;2023-03-01T03:06:07;43.37;;;38.00;;
23682;SDS011;24897;53.514;10.482;2023-03-01T03:08:52;45.03;;;39.47;;
23682;SDS011;24897;53.514;10.482;2023-03-01T03:11:36;48.30;;;40.07;;
23682;SDS011;24897;53.514;10.482;2023-03-01T03:14:22;43.77;;;37.37;;
23682;SDS011;24897;53.514;10.482;2023-03-01T03:17:07;43.83;;;38.67;;
23682;SDS011;24897;53.514;10.482;2023-03-01T03:19:50;45.07;;;37.80;;
23682;SDS011;24897;53.514;10.482;2023-03-01T03:22:35;44.63;;;38.50;;
23682;SDS011;24897;53.514;10.482;2023-03-01T03:25:19;45.60;;;38.90;;
23682;SDS011;24897;53.514;10.482;2023-03-01T03:28:05;46.87;;;38.80;;
23682;SDS011;24897;53.514;10.482;2023-03-01T03:30:59;45.73;;;37.67;;
23682;SDS011;24897;53.514;10.482;2023-03-01T03:33:47;44.57;;;38.07;;
23682;SDS011;24897;53.514;10.482;2023-03-01T03:36:32;42.67;;;37.47;;
23682;SDS011;24897;53.514;10.482;2023-03-01T03:39:16;45.40;;;38.00;;
23682;SDS011;24897;53.514;10.482;2023-03-01T03:42:00;44.27;;;38.23;;
23682;SDS011;24897;53.514;10.482;2023-03-01T03:44:45;45.53;;;37.87;;
23682;SDS011;24897;53.514;10.482;2023-03-01T03:47:29;45.37;;;37.83;;
23682;SDS011;24897;53.514;10.482;2023-03-01T03:50:14;43.17;;;37.67;;
23682;SDS011;24897;53.514;10.482;2023-03-01T03:53:00;45.57;;;37.93;;
23682;SDS011;24897;53.514;10.482;2023-03-01T03:55:46;42.43;;;36.77;;
23682;SDS011;24897;53.514;10.482;2023-03-01T03:58:32;42.37;;;37.77;;
23682;SDS011;24897;53.514;10.482;2023-03-01T04:01:17;42.20;;;36.40;;
23682;SDS011;24897;53.514;10.482;2023-03-01T04:04:01;43.63;;;37.83;;
23682;SDS011;24897;53.514;10.482;2023-03-01T04:06:47;42.03;;;37.50;;
23682;SDS011;24897;53.514;10.482;2023-03-01T04:09:31;43.83;;;37.93;;
23682;SDS011;24897;53.514;10.482;2023-03-01T04:12:16;43.73;;;39.07;;
23682;SDS011;24897;53.514;10.482;2023-03-01T04:15:06;42.40;;;37.90;;
23682;SDS011;24897;53.514;10.482;2023-03-01T04:17:57;43.47;;;38.70;;
23682;SDS011;24897;53.514;10.482;2023-03-01T04:20:42;44.93;;;40.03;;
23682;SDS011;24897;53.514;10.482;2023-03-01T04:23:28;46.17;;;41.10;;
23682;SDS011;24897;53.514;10.482;2023-03-01T04:26:12;45.47;;;40.77;;
23682;SDS011;24897;53.514;10.482;2023-03-01T04:28:56;46.27;;;41.40;;
23682;SDS011;24897;53.514;10.482;2023-03-01T04:31:40;48.27;;;41.80;;
23682;SDS011;24897;53.514;10.482;2023-03-01T04:34:24;47.20;;;40.17;;
23682;SDS011;24897;53.514;10.482;2023-03-01T04:37:10;43.93;;;39.33;;
23682;SDS011;24897;53.514;10.482;2023-03-01T04:39:54;43.87;;;39.23;;
23682;SDS011;24897;53.514;10.482;2023-03-01T04:42:38;44.43;;;39.47;;
23682;SDS011;24897;53.514;10.482;2023-03-01T04:45:23;44.87;;;39.90;;
23682;SDS011;24897;53.514;10.482;2023-03-01T04:48:07;44.13;;;39.53;;
23682;SDS011;24897;53.514;10.482;2023-03-01T04:50:51;43.50;;;38.87;;
23682;SDS011;24897;53.514;10.482;2023-03-01T04:53:35;43.33;;;38.90;;
23682;SDS011;24897;53.514;10.482;2023-03-01T04:56:20;44.97;;;39.30;;
23682;SDS011;24897;53.514;10.482;2023-03-01T04:59:06;44.33;;;39.80;;
23682;SDS011;24897;53.514;10.482;2023-03-01T05:01:52;43.77;;;39.03;;
23682;SDS011;24897;53.514;10.482;2023-03-01T05:04:41;44.33;;;39.63;;
23682;SDS011;24897;53.514;10.482;2023-03-01T05:07:25;43.83;;;37.90;;
23682;SDS011;24897;53.514;10.482;2023-03-01T05:10:10;41.17;;;36.97;;
23682;SDS011;24897;53.514;10.482;2023-03-01T05:12:54;40.87;;;36.77;;
23682;SDS011;24897;53.514;10.482;2023-03-01T05:15:40;41.83;;;37.57;;
23682;SDS011;24897;53.514;10.482;2023-03-01T05:18:26;45.27;;;40.40;;
23682;SDS011;24897;53.514;10.482;2023-03-01T05:21:13;41.80;;;37.40;;
23682;SDS011;24897;53.514;10.482;2023-03-01T05:24:01;41.63;;;37.17;;
23682;SDS011;24897;53.514;10.482;2023-03-01T05:26:46;42.53;;;38.23;;
23682;SDS011;24897;53.514;10.482;2023-03-01T05:29:31;43.07;;;38.77;;
23682;SDS011;24897;53.514;10.482;2023-03-01T05:32:18;42.63;;;37.80;;
23682;SDS011;24897;53.514;10.482;2023-03-01T05:35:03;47.07;;;42.47;;
23682;SDS011;24897;53.514;10.482;2023-03-01T05:37:48;83.07;;;76.17;;
23682;SDS011;24897;53.514;10.482;2023-03-01T05:40:33;85.53;;;78.73;;
23682;SDS011;24897;53.514;10.482;2023-03-01T05:43:18;82.33;;;75.63;;
23682;SDS011;24897;53.514;10.482;2023-03-01T05:46:02;80.67;;;74.20;;
23682;SDS011;24897;53.514;10.482;2023-03-01T05:48:46;83.50;;;76.50;;
23682;SDS011;24897;53.514;10.482;2023-03-01T05:51:32;83.77;;;77.07;;
23682;SDS011;24897;53.514;10.482;2023-03-01T05:54:18;83.40;;;76.33;;
23682;SDS011;24897;53.514;10.482;2023-03-01T05:57:03;76.00;;;69.50;;
23682;SDS011;24897;53.514;10.482;2023-03-01T05:59:48;76.93;;;70.50;;
23682;SDS011;24897;53.514;10.482;2023-03-01T06:02:32;76.47;;;69.97;;
23682;SDS011;24897;53.514;10.482;2023-03-01T06:05:16;41.00;;;36.60;;
23682;SDS011;24897;53.514;10.482;2023-03-01T06:08:00;43.43;;;39.03;;
23682;SDS011;24897;53.514;10.482;2023-03-01T06:10:45;42.23;;;37.80;;
23682;SDS011;24897;53.514;10.482;2023-03-01T06:13:31;42.80;;;38.20;;
23682;SDS011;24897;53.514;10.482;2023-03-01T06:16:15;42.17;;;37.43;;
23682;SDS011;24897;53.514;10.482;2023-03-01T06:18:59;40.07;;;36.07;;
23682;SDS011;24897;53.514;10.482;2023-03-01T06:21:43;40.17;;;36.03;;
23682;SDS011;24897;53.514;10.482;2023-03-01T06:24:27;40.90;;;36.67;;
23682;SDS011;24897;53.514;10.482;2023-03-01T06:27:12;41.03;;;36.63;;
23682;SDS011;24897;53.514;10.482;2023-03-01T06:29:56;38.80;;;34.70;;
23682;SDS011;24897;53.514;10.482;2023-03-01T06:32:41;39.03;;;34.83;;
23682;SDS011;24897;53.514;10.482;2023-03-01T06:35:28;40.20;;;36.10;;
23682;SDS011;24897;53.514;10.482;2023-03-01T06:38:13;38.57;;;34.60;;
23682;SDS011;24897;53.514;10.482;2023-03-01T06:41:02;39.00;;;35.10;;
23682;SDS011;24897;53.514;10.482;2023-03-01T06:43:46;38.93;;;34.73;;
23682;SDS011;24897;53.514;10.482;2023-03-01T06:46:30;41.57;;;34.80;;
23682;SDS011;24897;53.514;10.482;2023-03-01T06:49:15;38.73;;;35.00;;
23682;SDS011;24897;53.514;10.482;2023-03-01T06:52:01;39.53;;;35.30;;
23682;SDS011;24897;53.514;10.482;2023-03-01T06:54:45;37.87;;;34.07;;
23682;SDS011;24897;53.514;10.482;2023-03-01T06:57:29;38.50;;;34.47;;
23682;SDS011;24897;53.514;10.482;2023-03-01T07:00:13;38.20;;;34.23;;
23682;SDS011;24897;53.514;10.482;2023-03-01T07:02:59;37.67;;;33.77;;
23682;SDS011;24897;53.514;10.482;2023-03-01T07:05:45;39.17;;;35.13;;
23682;SDS011;24897;53.514;10.482;2023-03-01T07:08:31;38.97;;;34.90;;
23682;SDS011;24897;53.514;10.482;2023-03-01T07:11:16;37.57;;;33.77;;
23682;SDS011;24897;53.514;10.482;2023-03-01T07:14:00;38.73;;;34.50;;
23682;SDS011;24897;53.514;10.482;2023-03-01T07:16:44;37.80;;;34.10;;
23682;SDS011;24897;53.514;10.482;2023-03-01T07:19:29;39.40;;;35.40;;
23682;SDS011;24897;53.514;10.482;2023-03-01T07:22:13;37.53;;;33.73;;
23682;SDS011;24897;53.514;10.482;2023-03-01T07:24:57;37.50;;;33.70;;
23682;SDS011;24897;53.514;10.482;2023-03-01T07:27:41;41.67;;;36.93;;
23682;SDS011;24897;53.514;10.482;2023-03-01T07:30:25;39.67;;;35.67;;
23682;SDS011;24897;53.514;10.482;2023-03-01T07:33:11;38.33;;;34.33;;
23682;SDS011;24897;53.514;10.482;2023-03-01T07:35:57;38.53;;;34.63;;
23682;SDS011;24897;53.514;10.482;2023-03-01T07:38:42;37.63;;;33.63;;
23682;SDS011;24897;53.514;10.482;2023-03-01T07:41:26;36.93;;;33.30;;
23682;SDS011;24897;53.514;10.482;2023-03-01T07:44:10;38.60;;;34.60;;
23682;SDS011;24897;53.514;10.482;2023-03-01T07:46:54;39.37;;;35.43;;
23682;SDS011;24897;53.514;10.482;2023-03-01T07:49:40;39.53;;;35.50;;
23682;SDS011;24897;53.514;10.482;2023-03-01T07:52:24;39.37;;;35.17;;
23682;SDS011;24897;53.514;10.482;2023-03-01T07:55:08;41.23;;;37.13;;
23682;SDS011;24897;53.514;10.482;2023-03-01T07:57:53;41.40;;;36.83;;
23682;SDS011;24897;53.514;10.482;2023-03-01T08:00:37;46.63;;;39.67;;
23682;SDS011;24897;53.514;10.482;2023-03-01T08:03:21;74.87;;;48.20;;
23682;SDS011;24897;53.514;10.482;2023-03-01T08:06:06;64.60;;;44.93;;
23682;SDS011;24897;53.514;10.482;2023-03-01T08:08:51;45.50;;;38.40;;
23682;SDS011;24897;53.514;10.482;2023-03-01T08:11:35;40.50;;;36.10;;
23682;SDS011;24897;53.514;10.482;2023-03-01T08:14:20;39.63;;;35.33;;
23682;SDS011;24897;53.514;10.482;2023-03-01T08:17:04;41.33;;;33.60;;
23682;SDS011;24897;53.514;10.482;2023-03-01T08:19:48;39.63;;;35.03;;
23682;SDS011;24897;53.514;10.482;2023-03-01T08:22:32;41.20;;;35.90;;
23682;SDS011;24897;53.514;10.482;2023-03-01T08:25:16;39.70;;;35.33;;
23682;SDS011;24897;53.514;10.482;2023-03-01T08:28:00;40.37;;;35.97;;
23682;SDS011;24897;53.514;10.482;2023-03-01T08:30:44;42.50;;;34.53;;
23682;SDS011;24897;53.514;10.482;2023-03-01T08:33:28;40.97;;;36.53;;
23682;SDS011;24897;53.514;10.482;2023-03-01T08:36:13;40.83;;;33.70;;
23682;SDS011;24897;53.514;10.482;2023-03-01T08:38:57;40.20;;;35.57;;
23682;SDS011;24897;53.514;10.482;2023-03-01T08:41:41;39.00;;;33.70;;
23682;SDS011;24897;53.514;10.482;2023-03-01T08:44:26;39.50;;;33.97;;
23682;SDS011;24897;53.514;10.482;2023-03-01T08:47:10;39.03;;;32.37;;
23682;SDS011;24897;53.514;10.482;2023-03-01T08:49:54;35.80;;;31.90;;
23682;SDS011;24897;53.514;10.482;2023-03-01T08:52:39;35.53;;;31.83;;
23682;SDS011;24897;53.514;10.482;2023-03-01T08:55:23;36.23;;;31.20;;
23682;SDS011;24897;53.514;10.482;2023-03-01T08:58:07;33.57;;;29.87;;
23682;SDS011;24897;53.514;10.482;2023-03-01T09:00:51;33.43;;;29.83;;
23682;SDS011;24897;53.514;10.482;2023-03-01T09:03:35;33.73;;;29.13;;
23682;SDS011;24897;53.514;10.482;2023-03-01T09:06:20;32.10;;;28.60;;
23682;SDS011;24897;53.514;10.482;2023-03-01T09:09:05;31.43;;;28.03;;
23682;SDS011;24897;53.514;10.482;2023-03-01T09:11:51;33.43;;;28.33;;
23682;SDS011;24897;53.514;10.482;2023-03-01T09:14:36;31.70;;;26.90;;
23682;SDS011;24897;53.514;10.482;2023-03-01T09:17:22;35.40;;;27.43;;
23682;SDS011;24897;53.514;10.482;2023-03-01T09:20:06;30.00;;;25.87;;
23682;SDS011;24897;53.514;10.482;2023-03-01T09:22:50;29.53;;;26.40;;
23682;SDS011;24897;53.514;10.482;2023-03-01T09:25:35;31.47;;;26.20;;
23682;SDS011;24897;53.514;10.482;2023-03-01T09:28:19;31.37;;;26.73;;
23682;SDS011;24897;53.514;10.482;2023-03-01T09:31:06;30.17;;;26.70;;
23682;SDS011;24897;53.514;10.482;2023-03-01T09:33:51;32.33;;;27.73;;
23682;SDS011;24897;53.514;10.482;2023-03-01T09:36:37;28.60;;;25.70;;
23682;SDS011;24897;53.514;10.482;2023-03-01T09:39:21;30.63;;;27.43;;
23682;SDS011;24897;53.514;10.482;2023-03-01T09:42:05;31.40;;;27.33;;
23682;SDS011;24897;53.514;10.482;2023-03-01T09:48:13;29.77;;;26.57;;
23682;SDS011;24897;53.514;10.482;2023-03-01T09:51:06;29.87;;;26.77;;
23682;SDS011;24897;53.514;10.482;2023-03-01T09:54:03;30.07;;;26.07;;
23682;SDS011;24897;53.514;10.482;2023-03-01T09:56:59;29.97;;;26.80;;
23682;SDS011;24897;53.514;10.482;2023-03-01T10:00:02;29.53;;;26.43;;
23682;SDS011;24897;53.514;10.482;2023-03-01T10:09:14;29.53;;;26.63;;
23682;SDS011;24897;53.514;10.482;2023-03-01T10:12:00;28.80;;;25.70;;
23682;SDS011;24897;53.514;10.482;2023-03-01T10:14:54;29.87;;;26.67;;
23682;SDS011;24897;53.514;10.482;2023-03-01T10:20:56;28.10;;;25.27;;
23682;SDS011;24897;53.514;10.482;2023-03-01T10:23:42;28.23;;;25.10;;
23682;SDS011;24897;53.514;10.482;2023-03-01T10:29:31;26.93;;;24.03;;
23682;SDS011;24897;53.514;10.482;2023-03-01T10:32:27;27.53;;;24.80;;
23682;SDS011;24897;53.514;10.482;2023-03-01T10:35:15;28.33;;;25.47;;
23682;SDS011;24897;53.514;10.482;2023-03-01T10:38:11;28.00;;;25.20;;
23682;SDS011;24897;53.514;10.482;2023-03-01T10:41:00;28.10;;;25.30;;
23682;SDS011;24897;53.514;10.482;2023-03-01T10:43:50;28.30;;;25.40;;
23682;SDS011;24897;53.514;10.482;2023-03-01T10:46:40;29.43;;;26.33;;
23682;SDS011;24897;53.514;10.482;2023-03-01T10:49:24;28.20;;;25.40;;
23682;SDS011;24897;53.514;10.482;2023-03-01T10:55:32;29.23;;;26.23;;
23682;SDS011;24897;53.514;10.482;2023-03-01T10:58:22;29.83;;;26.83;;
23682;SDS011;24897;53.514;10.482;2023-03-01T11:04:13;29.27;;;26.30;;
23682;SDS011;24897;53.514;10.482;2023-03-01T11:06:58;26.87;;;24.27;;
23682;SDS011;24897;53.514;10.482;2023-03-01T11:09:44;27.50;;;24.70;;
23682;SDS011;24897;53.514;10.482;2023-03-01T11:12:28;27.97;;;25.20;;
23682;SDS011;24897;53.514;10.482;2023-03-01T11:15:24;25.97;;;23.37;;
23682;SDS011;24897;53.514;10.482;2023-03-01T11:18:19;26.57;;;23.97;;
23682;SDS011;24897;53.514;10.482;2023-03-01T11:21:05;26.30;;;23.63;;
23682;SDS011;24897;53.514;10.482;2023-03-01T11:23:52;26.70;;;24.10;;
23682;SDS011;24897;53.514;10.482;2023-03-01T11:26:38;26.83;;;24.33;;
23682;SDS011;24897;53.514;10.482;2023-03-01T11:32:40;27.80;;;24.93;;
23682;SDS011;24897;53.514;10.482;2023-03-01T11:35:29;26.93;;;24.30;;
23682;SDS011;24897;53.514;10.482;2023-03-01T11:38:20;27.27;;;24.67;;
23682;SDS011;24897;53.514;10.482;2023-03-01T11:46:57;24.97;;;22.57;;
23682;SDS011;24897;53.514;10.482;2023-03-01T11:53:13;24.93;;;22.57;;
23682;SDS011;24897;53.514;10.482;2023-03-01T11:56:25;24.63;;;22.43;;
23682;SDS011;24897;53.514;10.482;2023-03-01T12:03:28;25.00;;;22.63;;
23682;SDS011;24897;53.514;10.482;2023-03-01T12:09:21;24.37;;;22.17;;
23682;SDS011;24897;53.514;10.482;2023-03-01T12:12:12;24.60;;;22.20;;
23682;SDS011;24897;53.514;10.482;2023-03-01T12:30:44;22.43;;;20.33;;
23682;SDS011;24897;53.514;10.482;2023-03-01T12:40:22;23.17;;;20.97;;
23682;SDS011;24897;53.514;10.482;2023-03-01T12:43:13;23.23;;;21.17;;
23682;SDS011;24897;53.514;10.482;2023-03-01T12:49:16;24.43;;;22.23;;
23682;SDS011;24897;53.514;10.482;2023-03-01T12:52:19;24.30;;;22.03;;
23682;SDS011;24897;53.514;10.482;2023-03-01T12:55:08;24.43;;;22.17;;
23682;SDS011;24897;53.514;10.482;2023-03-01T13:01:26;24.10;;;22.00;;
23682;SDS011;24897;53.514;10.482;2023-03-01T13:10:02;22.47;;;20.57;;
23682;SDS011;24897;53.514;10.482;2023-03-01T13:13:20;23.93;;;21.83;;
23682;SDS011;24897;53.514;10.482;2023-03-01T13:16:38;22.87;;;20.87;;
23682;SDS011;24897;53.514;10.482;2023-03-01T13:19:27;22.37;;;20.43;;
23682;SDS011;24897;53.514;10.482;2023-03-01T13:22:27;20.80;;;19.00;;
23682;SDS011;24897;53.514;10.482;2023-03-01T13:25:16;22.10;;;20.17;;
23682;SDS011;24897;53.514;10.482;2023-03-01T13:34:16;21.77;;;19.67;;
23682;SDS011;24897;53.514;10.482;2023-03-01T13:37:26;20.67;;;18.87;;
23682;SDS011;24897;53.514;10.482;2023-03-01T13:46:27;19.67;;;18.07;;
23682;SDS011;24897;53.514;10.482;2023-03-01T13:49:12;18.97;;;17.30;;
23682;SDS011;24897;53.514;10.482;2023-03-01T13:51:59;19.53;;;17.83;;
23682;SDS011;24897;53.514;10.482;2023-03-01T13:54:45;18.20;;;16.70;;
23682;SDS011;24897;53.514;10.482;2023-03-01T13:57:32;18.67;;;17.17;;
23682;SDS011;24897;53.514;10.482;2023-03-01T14:03:14;19.20;;;17.60;;
23682;SDS011;24897;53.514;10.482;2023-03-01T14:09:00;19.10;;;17.57;;
23682;SDS011;24897;53.514;10.482;2023-03-01T14:20:30;20.80;;;18.90;;
23682;SDS011;24897;53.514;10.482;2023-03-01T14:23:22;19.83;;;18.03;;
23682;SDS011;24897;53.514;10.482;2023-03-01T14:26:07;19.80;;;18.10;;
23682;SDS011;24897;53.514;10.482;2023-03-01T14:28:52;20.37;;;18.67;;
23682;SDS011;24897;53.514;10.482;2023-03-01T14:31:38;19.77;;;18.10;;
23682;SDS011;24897;53.514;10.482;2023-03-01T14:34:24;20.07;;;18.13;;
23682;SDS011;24897;53.514;10.482;2023-03-01T14:37:17;20.33;;;18.53;;
23682;SDS011;24897;53.514;10.482;2023-03-01T14:40:19;21.37;;;19.43;;
23682;SDS011;24897;53.514;10.482;2023-03-01T14:43:09;22.73;;;20.47;;
23682;SDS011;24897;53.514;10.482;2023-03-01T14:45:55;21.90;;;19.90;;
23682;SDS011;24897;53.514;10.482;2023-03-01T14:48:40;21.63;;;19.57;;
23682;SDS011;24897;53.514;10.482;2023-03-01T14:51:25;21.90;;;19.87;;
23682;SDS011;24897;53.514;10.482;2023-03-01T14:54:20;20.63;;;18.63;;
23682;SDS011;24897;53.514;10.482;2023-03-01T14:57:05;20.53;;;18.73;;
23682;SDS011;24897;53.514;10.482;2023-03-01T14:59:53;20.13;;;18.33;;
23682;SDS011;24897;53.514;10.482;2023-03-01T15:02:40;20.10;;;18.20;;
23682;SDS011;24897;53.514;10.482;2023-03-01T15:05:30;18.50;;;16.90;;
23682;SDS011;24897;53.514;10.482;2023-03-01T15:08:21;18.60;;;17.00;;
23682;SDS011;24897;53.514;10.482;2023-03-01T15:17:34;18.60;;;16.93;;
23682;SDS011;24897;53.514;10.482;2023-03-01T15:20:23;17.93;;;16.43;;
23682;SDS011;24897;53.514;10.482;2023-03-01T15:23:17;19.73;;;16.57;;
23682;SDS011;24897;53.514;10.482;2023-03-01T15:26:04;17.60;;;16.13;;
23682;SDS011;24897;53.514;10.482;2023-03-01T15:28:52;18.13;;;16.63;;
23682;SDS011;24897;53.514;10.482;2023-03-01T15:31:42;16.60;;;15.20;;
23682;SDS011;24897;53.514;10.482;2023-03-01T15:34:30;17.10;;;15.60;;
23682;SDS011;24897;53.514;10.482;2023-03-01T15:40:37;17.20;;;15.80;;
23682;SDS011;24897;53.514;10.482;2023-03-01T15:46:24;17.93;;;16.43;;
23682;SDS011;24897;53.514;10.482;2023-03-01T15:52:33;19.33;;;17.50;;
23682;SDS011;24897;53.514;10.482;2023-03-01T15:55:24;18.23;;;16.73;;
23682;SDS011;24897;53.514;10.482;2023-03-01T15:58:13;18.47;;;16.87;;
23682;SDS011;24897;53.514;10.482;2023-03-01T16:01:00;18.93;;;17.33;;
23682;SDS011;24897;53.514;10.482;2023-03-01T16:03:44;18.37;;;16.83;;
23682;SDS011;24897;53.514;10.482;2023-03-01T16:06:28;17.67;;;16.27;;
23682;SDS011;24897;53.514;10.482;2023-03-01T16:09:12;18.57;;;16.97;;
23682;SDS011;24897;53.514;10.482;2023-03-01T16:11:57;18.20;;;16.70;;
23682;SDS011;24897;53.514;10.482;2023-03-01T16:14:41;20.17;;;18.43;;
23682;SDS011;24897;53.514;10.482;2023-03-01T16:17:25;18.30;;;16.70;;
23682;SDS011;24897;53.514;10.482;2023-03-01T16:20:09;19.33;;;17.63;;
23682;SDS011;24897;53.514;10.482;2023-03-01T16:22:54;17.10;;;15.80;;
23682;SDS011;24897;53.514;10.482;2023-03-01T16:25:41;18.13;;;16.53;;
23682;SDS011;24897;53.514;10.482;2023-03-01T16:28:25;18.43;;;16.93;;
23682;SDS011;24897;53.514;10.482;2023-03-01T16:31:10;18.20;;;16.80;;
23682;SDS011;24897;53.514;10.482;2023-03-01T16:33:56;18.93;;;17.43;;
23682;SDS011;24897;53.514;10.482;2023-03-01T16:36:42;21.50;;;19.60;;
23682;SDS011;24897;53.514;10.482;2023-03-01T16:39:26;24.00;;;21.63;;
23682;SDS011;24897;53.514;10.482;2023-03-01T16:42:11;26.00;;;23.50;;
23682;SDS011;24897;53.514;10.482;2023-03-01T16:44:55;27.27;;;24.57;;
23682;SDS011;24897;53.514;10.482;2023-03-01T16:47:39;29.87;;;26.87;;
23682;SDS011;24897;53.514;10.482;2023-03-01T16:50:24;31.60;;;28.50;;
23682;SDS011;24897;53.514;10.482;2023-03-01T16:53:08;34.37;;;31.17;;
23682;SDS011;24897;53.514;10.482;2023-03-01T16:55:54;35.63;;;32.13;;
23682;SDS011;24897;53.514;10.482;2023-03-01T16:58:39;37.00;;;33.53;;
23682;SDS011;24897;53.514;10.482;2023-03-01T17:01:24;38.10;;;34.40;;
23682;SDS011;24897;53.514;10.482;2023-03-01T17:04:12;82.47;;;76.27;;
23682;SDS011;24897;53.514;10.482;2023-03-01T17:06:57;82.67;;;76.37;;
23682;SDS011;24897;53.514;10.482;2023-03-01T17:09:41;82.20;;;75.90;;
23682;SDS011;24897;53.514;10.482;2023-03-01T17:12:25;81.67;;;75.23;;
23682;SDS011;24897;53.514;10.482;2023-03-01T17:15:11;82.40;;;76.07;;
23682;SDS011;24897;53.514;10.482;2023-03-01T17:17:55;83.37;;;76.87;;
23682;SDS011;24897;53.514;10.482;2023-03-01T17:20:39;81.40;;;75.00;;
23682;SDS011;24897;53.514;10.482;2023-03-01T17:23:24;81.60;;;75.00;;
23682;SDS011;24897;53.514;10.482;2023-03-01T17:26:09;79.90;;;73.30;;
23682;SDS011;24897;53.514;10.482;2023-03-01T17:28:53;82.90;;;76.10;;
23682;SDS011;24897;53.514;10.482;2023-03-01T17:31:38;83.87;;;77.03;;
23682;SDS011;24897;53.514;10.482;2023-03-01T17:34:23;84.13;;;77.23;;
23682;SDS011;24897;53.514;10.482;2023-03-01T17:37:08;82.37;;;75.43;;
23682;SDS011;24897;53.514;10.482;2023-03-01T17:39:52;85.57;;;77.97;;
23682;SDS011;24897;53.514;10.482;2023-03-01T17:42:36;89.90;;;81.80;;
23682;SDS011;24897;53.514;10.482;2023-03-01T17:45:20;90.87;;;82.77;;
23682;SDS011;24897;53.514;10.482;2023-03-01T17:48:05;95.37;;;86.63;;
23682;SDS011;24897;53.514;10.482;2023-03-01T17:50:50;94.00;;;85.17;;
23682;SDS011;24897;53.514;10.482;2023-03-01T17:53:34;94.97;;;85.93;;
23682;SDS011;24897;53.514;10.482;2023-03-01T17:56:19;98.07;;;88.67;;
23682;SDS011;24897;53.514;10.482;2023-03-01T17:59:03;99.73;;;90.13;;
23682;SDS011;24897;53.514;10.482;2023-03-01T18:01:48;99.63;;;89.77;;
23682;SDS011;24897;53.514;10.482;2023-03-01T18:04:32;104.97;;;94.10;;
23682;SDS011;24897;53.514;10.482;2023-03-01T18:07:16;100.47;;;89.63;;
23682;SDS011;24897;53.514;10.482;2023-03-01T18:10:00;93.37;;;58.20;;
23682;SDS011;24897;53.514;10.482;2023-03-01T18:12:45;92.47;;;59.37;;